createdAt,value
2018-06-11T00:00:15.866Z,100955.48
2018-06-11T00:00:37.635Z,100959.42
2018-06-11T00:00:59.379Z,100957.70
2018-06-11T00:01:21.148Z,100955.08
2018-06-11T00:01:42.904Z,100960.85
2018-06-11T00:02:04.665Z,100958.22
2018-06-11T00:02:26.436Z,100959.02
2018-06-11T00:02:48.213Z,100957.30
2018-06-11T00:03:09.979Z,100955.98
2018-06-11T00:03:31.761Z,100959.94
2018-06-11T00:03:53.547Z,100955.98
2018-06-11T00:04:15.312Z,100951.13
2018-06-11T00:04:37.079Z,100958.22
2018-06-11T00:04:58.848Z,100954.67
2018-06-11T00:05:20.622Z,100952.04
2018-06-11T00:05:42.405Z,100951.13
2018-06-11T00:06:04.178Z,100951.23
2018-06-11T00:06:25.956Z,100947.28
2018-06-11T00:06:47.734Z,100951.13
2018-06-11T00:07:09.511Z,100944.14
2018-06-11T00:07:31.263Z,100947.28
2018-06-11T00:07:53.030Z,100949.92
2018-06-11T00:08:14.783Z,100947.69
2018-06-11T00:08:36.540Z,100948.20
2018-06-11T00:08:58.311Z,100947.69
2018-06-11T00:09:20.094Z,100948.60
2018-06-11T00:09:41.866Z,100944.14
2018-06-11T00:10:03.624Z,100950.83
2018-06-11T00:10:25.398Z,100945.45
2018-06-11T00:10:47.174Z,100945.05
2018-06-11T00:11:08.939Z,100942.02
2018-06-11T00:11:30.869Z,100938.47
2018-06-11T00:11:52.636Z,100940.30
2018-06-11T00:12:14.384Z,100934.12
2018-06-11T00:12:36.153Z,100931.89
2018-06-11T00:12:57.934Z,100942.93
2018-06-11T00:13:19.706Z,100932.80
2018-06-11T00:13:41.476Z,100939.38
2018-06-11T00:14:03.251Z,100934.12
2018-06-11T00:14:25.166Z,100934.63
2018-06-11T00:14:46.938Z,100935.03
2018-06-11T00:15:08.761Z,100927.53
2018-06-11T00:15:30.530Z,100933.31
2018-06-11T00:15:52.287Z,100930.17
2018-06-11T00:16:14.054Z,100929.37
2018-06-11T00:16:35.824Z,100928.56
2018-06-11T00:16:57.581Z,100928.45
2018-06-11T00:17:19.340Z,100929.77
2018-06-11T00:17:41.119Z,100930.17
2018-06-11T00:18:02.885Z,100928.05
2018-06-11T00:18:24.638Z,100926.73
2018-06-11T00:18:46.406Z,100921.47
2018-06-11T00:19:08.168Z,100926.73
2018-06-11T00:19:29.924Z,100924.61
2018-06-11T00:19:51.691Z,100929.37
2018-06-11T00:20:13.484Z,100926.73
2018-06-11T00:20:35.240Z,100921.87
2018-06-11T00:20:56.994Z,100929.88
2018-06-11T00:21:18.769Z,100922.38
2018-06-11T00:21:40.535Z,100924.61
2018-06-11T00:22:02.307Z,100921.47
2018-06-11T00:22:24.076Z,100922.89
2018-06-11T00:22:45.867Z,100918.94
2018-06-11T00:23:07.630Z,100920.66
2018-06-11T00:23:29.416Z,100914.88
2018-06-11T00:23:51.179Z,100918.43
2018-06-11T00:24:12.959Z,100921.58
2018-06-11T00:24:34.725Z,100915.80
2018-06-11T00:24:56.504Z,100919.86
2018-06-11T00:25:18.271Z,100922.48
2018-06-11T00:25:40.034Z,100920.66
2018-06-11T00:26:01.804Z,100923.30
2018-06-11T00:26:23.555Z,100917.63
2018-06-11T00:26:45.303Z,100916.31
2018-06-11T00:27:07.085Z,100916.71
2018-06-11T00:27:28.851Z,100919.45
2018-06-11T00:27:50.619Z,100916.31
2018-06-11T00:28:12.379Z,100921.06
2018-06-11T00:28:34.147Z,100918.43
2018-06-11T00:28:55.904Z,100918.02
2018-06-11T00:29:17.669Z,100915.80
2018-06-11T00:29:39.446Z,100915.80
2018-06-11T00:30:01.212Z,100918.02
2018-06-11T00:30:22.968Z,100920.55
2018-06-11T00:30:44.732Z,100920.66
2018-06-11T00:31:06.516Z,100919.75
2018-06-11T00:31:28.276Z,100916.31
2018-06-11T00:31:50.047Z,100913.16
2018-06-11T00:32:11.833Z,100917.52
2018-06-11T00:32:33.641Z,100917.52
2018-06-11T00:32:55.420Z,100911.44
2018-06-11T00:33:17.184Z,100922.89
2018-06-11T00:33:38.944Z,100920.25
2018-06-11T00:34:00.720Z,100919.34
2018-06-11T00:34:22.463Z,100920.66
2018-06-11T00:34:44.220Z,100919.45
2018-06-11T00:35:06.111Z,100918.43
2018-06-11T00:35:27.861Z,100918.02
2018-06-11T00:35:49.610Z,100918.53
2018-06-11T00:36:11.372Z,100919.34
2018-06-11T00:36:33.126Z,100925.52
2018-06-11T00:36:54.891Z,100920.66
2018-06-11T00:37:16.647Z,100924.20
2018-06-11T00:37:38.416Z,100919.86
2018-06-11T00:38:00.207Z,100915.91
2018-06-11T00:38:21.963Z,100923.80
2018-06-11T00:38:43.729Z,100922.59
2018-06-11T00:39:05.483Z,100914.59
2018-06-11T00:39:27.238Z,100916.71
2018-06-11T00:39:49.013Z,100920.25
2018-06-11T00:40:10.777Z,100910.12
2018-06-11T00:40:32.544Z,100917.63
2018-06-11T00:40:54.321Z,100915.39
2018-06-11T00:41:16.074Z,100920.36
2018-06-11T00:41:37.835Z,100914.59
2018-06-11T00:41:59.599Z,100917.22
2018-06-11T00:42:21.384Z,100915.39
2018-06-11T00:42:43.146Z,100918.53
2018-06-11T00:43:04.937Z,100916.31
2018-06-11T00:43:26.712Z,100914.08
2018-06-11T00:43:48.467Z,100908.81
2018-06-11T00:44:10.236Z,100912.36
2018-06-11T00:44:31.983Z,100906.69
2018-06-11T00:44:53.749Z,100912.87
2018-06-11T00:45:15.505Z,100907.90
2018-06-11T00:45:37.288Z,100910.64
2018-06-11T00:45:59.058Z,100914.19
2018-06-11T00:46:20.840Z,100910.64
2018-06-11T00:46:42.608Z,100907.09
2018-06-11T00:47:04.371Z,100908.81
2018-06-11T00:47:26.132Z,100903.66
2018-06-11T00:47:47.896Z,100909.72
2018-06-11T00:48:09.679Z,100904.86
2018-06-11T00:48:31.448Z,100903.66
2018-06-11T00:48:53.208Z,100903.55
2018-06-11T00:49:14.967Z,100910.23
2018-06-11T00:49:36.732Z,100905.38
2018-06-11T00:49:58.492Z,100910.64
2018-06-11T00:50:20.242Z,100903.14
2018-06-11T00:50:41.994Z,100906.39
2018-06-11T00:51:03.771Z,100901.83
2018-06-11T00:51:25.530Z,100899.30
2018-06-11T00:51:47.299Z,100899.00
2018-06-11T00:52:09.045Z,100896.16
2018-06-11T00:52:30.813Z,100899.19
2018-06-11T00:52:52.587Z,100897.58
2018-06-11T00:53:14.359Z,100895.24
2018-06-11T00:53:36.118Z,100901.02
2018-06-11T00:53:57.876Z,100897.47
2018-06-11T00:54:19.656Z,100906.28
2018-06-11T00:54:41.411Z,100895.24
2018-06-11T00:55:03.172Z,100896.56
2018-06-11T00:55:24.921Z,100899.19
2018-06-11T00:55:46.706Z,100904.05
2018-06-11T00:56:08.492Z,100896.56
2018-06-11T00:56:30.264Z,100896.56
2018-06-11T00:56:52.038Z,100887.74
2018-06-11T00:57:13.795Z,100890.38
2018-06-11T00:57:35.574Z,100892.09
2018-06-11T00:57:57.355Z,100899.59
2018-06-11T00:58:19.125Z,100895.24
2018-06-11T00:58:40.914Z,100892.09
2018-06-11T00:59:02.692Z,100898.79
2018-06-11T00:59:24.462Z,100897.87
2018-06-11T00:59:46.227Z,100894.33
2018-06-11T01:00:07.982Z,100893.02
2018-06-11T01:00:29.733Z,100886.43
2018-06-11T01:00:51.493Z,100892.20
2018-06-11T01:01:13.253Z,100892.61
2018-06-11T01:01:35.011Z,100892.09
2018-06-11T01:01:56.765Z,100893.92
2018-06-11T01:02:18.520Z,100890.78
2018-06-11T01:02:40.282Z,100893.12
2018-06-11T01:03:02.065Z,100889.98
2018-06-11T01:03:23.825Z,100890.78
2018-06-11T01:03:45.612Z,100886.83
2018-06-11T01:04:07.358Z,100889.98
2018-06-11T01:04:29.119Z,100887.34
2018-06-11T01:04:50.880Z,100894.84
2018-06-11T01:05:12.641Z,100889.98
2018-06-11T01:05:34.406Z,100887.34
2018-06-11T01:05:56.165Z,100886.03
2018-06-11T01:06:17.926Z,100889.98
2018-06-11T01:06:39.677Z,100886.43
2018-06-11T01:07:01.441Z,100889.98
2018-06-11T01:07:23.203Z,100886.83
2018-06-11T01:07:44.969Z,100896.96
2018-06-11T01:08:06.742Z,100890.89
2018-06-11T01:08:28.498Z,100892.20
2018-06-11T01:08:50.275Z,100897.87
2018-06-11T01:09:12.055Z,100900.11
2018-06-11T01:09:33.830Z,100894.84
2018-06-11T01:09:55.603Z,100897.47
2018-06-11T01:10:17.371Z,100895.34
2018-06-11T01:10:39.129Z,100896.16
2018-06-11T01:11:00.878Z,100902.73
2018-06-11T01:11:22.638Z,100901.02
2018-06-11T01:11:44.387Z,100900.62
2018-06-11T01:12:06.167Z,100901.42
2018-06-11T01:12:27.937Z,100901.83
2018-06-11T01:12:49.706Z,100897.87
2018-06-11T01:13:11.493Z,100901.42
2018-06-11T01:13:33.258Z,100897.47
2018-06-11T01:13:55.035Z,100899.19
2018-06-11T01:14:16.782Z,100901.42
2018-06-11T01:14:38.527Z,100901.42
2018-06-11T01:15:00.315Z,100897.87
2018-06-11T01:15:22.088Z,100898.38
2018-06-11T01:15:43.841Z,100900.11
2018-06-11T01:16:05.621Z,100900.51
2018-06-11T01:16:27.383Z,100900.11
2018-06-11T01:16:49.172Z,100900.62
2018-06-11T01:17:10.926Z,100892.61
2018-06-11T01:17:32.690Z,100903.14
2018-06-11T01:17:54.457Z,100897.47
2018-06-11T01:18:16.232Z,100898.79
2018-06-11T01:18:38.014Z,100895.75
2018-06-11T01:18:59.783Z,100901.02
2018-06-11T01:19:21.554Z,100894.44
2018-06-11T01:19:43.330Z,100897.07
2018-06-11T01:20:05.104Z,100896.16
2018-06-11T01:20:26.852Z,100901.42
2018-06-11T01:20:48.633Z,100898.38
2018-06-11T01:21:10.387Z,100893.12
2018-06-11T01:21:32.140Z,100893.63
2018-06-11T01:21:54.167Z,100891.80
2018-06-11T01:22:15.931Z,100891.41
2018-06-11T01:22:37.741Z,100892.31
2018-06-11T01:22:59.518Z,100889.17
2018-06-11T01:23:21.277Z,100885.41
2018-06-11T01:23:43.039Z,100882.67
2018-06-11T01:24:04.800Z,100887.69
2018-06-11T01:24:26.571Z,100889.41
2018-06-11T01:24:48.327Z,100887.58
2018-06-11T01:25:10.074Z,100884.63
2018-06-11T01:25:31.833Z,100879.44
2018-06-11T01:25:53.576Z,100883.89
2018-06-11T01:26:15.341Z,100887.44
2018-06-11T01:26:37.098Z,100879.44
2018-06-11T01:26:58.851Z,100883.13
2018-06-11T01:27:20.619Z,100881.20
2018-06-11T01:27:42.373Z,100886.53
2018-06-11T01:28:04.129Z,100884.97
2018-06-11T01:28:25.908Z,100886.69
2018-06-11T01:28:47.698Z,100886.58
2018-06-11T01:29:09.433Z,100887.89
2018-06-11T01:29:31.207Z,100888.70
2018-06-11T01:29:52.962Z,100886.77
2018-06-11T01:30:14.742Z,100889.06
2018-06-11T01:30:36.492Z,100886.03
2018-06-11T01:30:58.247Z,100888.26
2018-06-11T01:31:20.014Z,100885.41
2018-06-11T01:31:41.760Z,100883.14
2018-06-11T01:32:03.516Z,100887.89
2018-06-11T01:32:25.282Z,100881.83
2018-06-11T01:32:47.054Z,100888.81
2018-06-11T01:33:08.802Z,100887.05
2018-06-11T01:33:30.555Z,100881.79
2018-06-11T01:33:52.322Z,100877.84
2018-06-11T01:34:14.084Z,100886.54
2018-06-11T01:34:35.826Z,100878.64
2018-06-11T01:34:57.576Z,100877.52
2018-06-11T01:35:19.334Z,100887.23
2018-06-11T01:35:41.112Z,100880.66
2018-06-11T01:36:03.192Z,100877.91
2018-06-11T01:36:24.949Z,100878.17
2018-06-11T01:36:46.720Z,100879.01
2018-06-11T01:37:08.484Z,100885.44
2018-06-11T01:37:30.238Z,100876.38
2018-06-11T01:37:51.987Z,100875.98
2018-06-11T01:38:13.774Z,100884.27
2018-06-11T01:38:35.535Z,100881.13
2018-06-11T01:38:57.304Z,100882.33
2018-06-11T01:39:19.061Z,100880.10
2018-06-11T01:39:40.819Z,100881.70
2018-06-11T01:40:02.575Z,100881.30
2018-06-11T01:40:24.342Z,100881.81
2018-06-11T01:40:46.115Z,100884.45
2018-06-11T01:41:07.872Z,100876.45
2018-06-11T01:41:29.637Z,100880.75
2018-06-11T01:41:51.379Z,100880.13
2018-06-11T01:42:13.130Z,100881.22
2018-06-11T01:42:34.891Z,100881.33
2018-06-11T01:42:56.645Z,100883.05
2018-06-11T01:43:18.430Z,100880.53
2018-06-11T01:43:40.186Z,100878.30
2018-06-11T01:44:01.942Z,100878.70
2018-06-11T01:44:23.707Z,100880.42
2018-06-11T01:44:45.465Z,100885.97
2018-06-11T01:45:07.222Z,100884.14
2018-06-11T01:45:28.978Z,100883.34
2018-06-11T01:45:50.774Z,100880.48
2018-06-11T01:46:12.521Z,100880.89
2018-06-11T01:46:34.274Z,100883.12
2018-06-11T01:46:56.019Z,100879.69
2018-06-11T01:47:17.784Z,100881.52
2018-06-11T01:47:39.541Z,100884.14
2018-06-11T01:48:01.304Z,100881.80
2018-06-11T01:48:23.087Z,100882.61
2018-06-11T01:48:44.827Z,100886.95
2018-06-11T01:49:06.591Z,100883.26
2018-06-11T01:49:28.348Z,100883.26
2018-06-11T01:49:50.101Z,100876.46
2018-06-11T01:50:11.870Z,100878.98
2018-06-11T01:50:33.629Z,100877.95
2018-06-11T01:50:55.380Z,100877.55
2018-06-11T01:51:17.151Z,100875.32
2018-06-11T01:51:38.908Z,100875.32
2018-06-11T01:52:00.824Z,100880.18
2018-06-11T01:52:22.586Z,100874.52
2018-06-11T01:52:44.352Z,100877.15
2018-06-11T01:53:06.107Z,100875.95
2018-06-11T01:53:27.898Z,100877.66
2018-06-11T01:53:49.646Z,100877.15
2018-06-11T01:54:11.491Z,100876.46
2018-06-11T01:54:33.244Z,100876.46
2018-06-11T01:54:55.004Z,100879.38
2018-06-11T01:55:16.751Z,100878.47
2018-06-11T01:55:38.645Z,100881.38
2018-06-11T01:56:00.401Z,100877.84
2018-06-11T01:56:22.152Z,100880.36
2018-06-11T01:56:43.900Z,100878.53
2018-06-11T01:57:05.800Z,100879.58
2018-06-11T01:57:27.554Z,100883.27
2018-06-11T01:57:49.323Z,100885.50
2018-06-11T01:58:11.095Z,100888.64
2018-06-11T01:58:32.849Z,100887.58
2018-06-11T01:58:54.622Z,100882.88
2018-06-11T01:59:16.402Z,100881.95
2018-06-11T01:59:38.163Z,100890.09
2018-06-11T01:59:59.927Z,100890.50
2018-06-11T02:00:21.695Z,100879.64
2018-06-11T02:00:43.479Z,100886.61
2018-06-11T02:01:05.237Z,100890.27
2018-06-11T02:01:26.987Z,100889.75
2018-06-11T02:01:48.742Z,100892.45
2018-06-11T02:02:10.644Z,100888.50
2018-06-11T02:02:32.412Z,100895.47
2018-06-11T02:02:54.175Z,100885.98
2018-06-11T02:03:15.945Z,100888.91
2018-06-11T02:03:37.706Z,100889.53
2018-06-11T02:03:59.499Z,100890.44
2018-06-11T02:04:21.272Z,100892.56
2018-06-11T02:04:43.031Z,100888.50
2018-06-11T02:05:04.783Z,100893.76
2018-06-11T02:05:26.543Z,100890.98
2018-06-11T02:05:48.538Z,100890.61
2018-06-11T02:06:10.279Z,100892.84
2018-06-11T02:06:32.053Z,100894.41
2018-06-11T02:06:53.820Z,100890.47
2018-06-11T02:07:15.588Z,100892.70
2018-06-11T02:07:37.343Z,100894.30
2018-06-11T02:07:59.110Z,100898.75
2018-06-11T02:08:20.873Z,100896.41
2018-06-11T02:08:42.643Z,100899.44
2018-06-11T02:09:04.567Z,100894.06
2018-06-11T02:09:26.354Z,100899.21
2018-06-11T02:09:48.116Z,100898.18
2018-06-11T02:10:09.874Z,100904.23
2018-06-11T02:10:31.623Z,100894.37
2018-06-11T02:10:53.388Z,100898.47
2018-06-11T02:11:15.155Z,100905.03
2018-06-11T02:11:36.921Z,100899.11
2018-06-11T02:11:58.680Z,100901.34
2018-06-11T02:12:20.453Z,100899.11
2018-06-11T02:12:42.210Z,100900.83
2018-06-11T02:13:03.967Z,100892.83
2018-06-11T02:13:25.722Z,100903.05
2018-06-11T02:13:47.499Z,100903.45
2018-06-11T02:14:09.243Z,100898.60
2018-06-11T02:14:31.032Z,100893.45
2018-06-11T02:14:52.778Z,100889.92
2018-06-11T02:15:14.527Z,100895.45
2018-06-11T02:15:36.283Z,100901.63
2018-06-11T02:15:58.030Z,100900.83
2018-06-11T02:16:19.785Z,100896.89
2018-06-11T02:16:41.541Z,100898.31
2018-06-11T02:17:03.301Z,100892.43
2018-06-11T02:17:25.065Z,100897.57
2018-06-11T02:17:46.809Z,100892.43
2018-06-11T02:18:08.561Z,100893.86
2018-06-11T02:18:30.312Z,100892.03
2018-06-11T02:18:52.074Z,100898.72
2018-06-11T02:19:13.818Z,100892.95
2018-06-11T02:19:35.565Z,100894.66
2018-06-11T02:19:57.319Z,100897.97
2018-06-11T02:20:19.062Z,100893.23
2018-06-11T02:20:40.822Z,100897.28
2018-06-11T02:21:02.569Z,100898.48
2018-06-11T02:21:24.326Z,100897.28
2018-06-11T02:21:46.087Z,100896.25
2018-06-11T02:22:07.833Z,100898.37
2018-06-11T02:22:29.585Z,100893.63
2018-06-11T02:22:51.337Z,100899.80
2018-06-11T02:23:13.099Z,100897.45
2018-06-11T02:23:34.879Z,100896.25
2018-06-11T02:23:56.638Z,100894.94
2018-06-11T02:24:18.400Z,100898.88
2018-06-11T02:24:40.155Z,100899.11
2018-06-11T02:25:01.912Z,100899.80
2018-06-11T02:25:23.675Z,100898.48
2018-06-11T02:25:45.434Z,100897.06
2018-06-11T02:26:07.187Z,100896.66
2018-06-11T02:26:28.941Z,100899.69
2018-06-11T02:26:50.704Z,100897.06
2018-06-11T02:27:12.461Z,100892.59
2018-06-11T02:27:34.221Z,100895.00
2018-06-11T02:27:55.980Z,100895.80
2018-06-11T02:28:17.736Z,100896.83
2018-06-11T02:28:39.516Z,100899.34
2018-06-11T02:29:01.275Z,100899.34
2018-06-11T02:29:23.035Z,100896.20
2018-06-11T02:29:44.796Z,100896.08
2018-06-11T02:30:06.543Z,100893.81
2018-06-11T02:30:28.328Z,100897.24
2018-06-11T02:30:50.096Z,100895.02
2018-06-11T02:31:11.868Z,100893.70
2018-06-11T02:31:33.619Z,100893.30
2018-06-11T02:31:55.384Z,100895.53
2018-06-11T02:32:17.141Z,100893.81
2018-06-11T02:32:38.915Z,100892.39
2018-06-11T02:33:00.663Z,100890.27
2018-06-11T02:33:22.425Z,100893.70
2018-06-11T02:34:05.582Z,100896.84
2018-06-11T02:34:27.368Z,100886.88
2018-06-11T02:34:49.125Z,100894.61
2018-06-11T02:35:10.885Z,100890.56
2018-06-11T02:35:32.657Z,100890.44
2018-06-11T02:35:54.432Z,100897.02
2018-06-11T02:36:16.196Z,100894.38
2018-06-11T02:36:37.956Z,100895.95
2018-06-11T02:36:59.703Z,100899.48
2018-06-11T02:37:21.463Z,100899.48
2018-06-11T02:37:43.217Z,100896.74
2018-06-11T02:38:04.987Z,100890.34
2018-06-11T02:38:26.747Z,100895.20
2018-06-11T02:38:48.525Z,100903.48
2018-06-11T02:39:10.276Z,100902.56
2018-06-11T02:39:32.035Z,100898.23
2018-06-11T02:39:53.785Z,100897.84
2018-06-11T02:40:15.562Z,100896.12
2018-06-11T02:40:37.306Z,100900.58
2018-06-11T02:40:59.078Z,100899.67
2018-06-11T02:41:20.827Z,100897.20
2018-06-11T02:41:42.595Z,100901.27
2018-06-11T02:42:04.351Z,100900.86
2018-06-11T02:42:26.131Z,100898.23
2018-06-11T02:42:47.895Z,100895.09
2018-06-11T02:43:09.661Z,100903.38
2018-06-11T02:43:31.419Z,100902.98
2018-06-11T02:43:53.182Z,100898.92
2018-06-11T02:44:14.944Z,100901.94
2018-06-11T02:44:36.696Z,100902.86
2018-06-11T02:44:58.447Z,100909.83
2018-06-11T02:45:20.206Z,100903.42
2018-06-11T02:45:41.948Z,100903.42
2018-06-11T02:46:03.719Z,100896.59
2018-06-11T02:46:25.472Z,100903.42
2018-06-11T02:46:47.236Z,100903.82
2018-06-11T02:47:08.994Z,100904.34
2018-06-11T02:47:30.756Z,100899.60
2018-06-11T02:47:52.513Z,100900.52
2018-06-11T02:48:14.276Z,100899.72
2018-06-11T02:48:36.049Z,100899.72
2018-06-11T02:48:57.862Z,100897.89
2018-06-11T02:49:19.630Z,100905.89
2018-06-11T02:49:41.400Z,100896.06
2018-06-11T02:50:03.167Z,100903.54
2018-06-11T02:50:24.929Z,100900.53
2018-06-11T02:50:46.694Z,100898.30
2018-06-11T02:51:08.456Z,100900.53
2018-06-11T02:51:30.202Z,100900.28
2018-06-11T02:51:51.945Z,100908.67
2018-06-11T02:52:13.699Z,100904.22
2018-06-11T02:52:35.454Z,100902.79
2018-06-11T02:52:57.212Z,100910.39
2018-06-11T02:53:18.982Z,100908.05
2018-06-11T02:53:40.725Z,100908.95
2018-06-11T02:54:02.513Z,100909.88
2018-06-11T02:54:24.254Z,100911.03
2018-06-11T02:54:46.026Z,100911.03
2018-06-11T02:55:07.776Z,100913.66
2018-06-11T02:55:29.523Z,100914.45
2018-06-11T02:55:51.283Z,100910.52
2018-06-11T02:56:13.040Z,100911.83
2018-06-11T02:56:34.812Z,100910.67
2018-06-11T02:56:56.564Z,100914.06
2018-06-11T02:57:18.318Z,100913.42
2018-06-11T02:57:40.079Z,100908.57
2018-06-11T02:58:01.840Z,100913.70
2018-06-11T02:58:23.624Z,100918.16
2018-06-11T02:58:45.382Z,100916.05
2018-06-11T02:59:07.156Z,100908.57
2018-06-11T02:59:28.918Z,100914.62
2018-06-11T02:59:50.669Z,100911.87
2018-06-11T03:00:12.431Z,100914.50
2018-06-11T03:00:34.213Z,100913.70
2018-06-11T03:00:55.964Z,100917.12
2018-06-11T03:01:17.724Z,100914.90
2018-06-11T03:01:39.473Z,100913.07
2018-06-11T03:02:01.218Z,100911.75
2018-06-11T03:02:22.981Z,100912.83
2018-06-11T03:02:44.747Z,100911.75
2018-06-11T03:03:06.510Z,100913.59
2018-06-11T03:03:28.280Z,100913.70
2018-06-11T03:03:50.038Z,100919.36
2018-06-11T03:04:11.841Z,100915.94
2018-06-11T03:04:33.599Z,100913.34
2018-06-11T03:04:55.357Z,100910.44
2018-06-11T03:05:17.531Z,100908.09
2018-06-11T03:05:39.278Z,100904.95
2018-06-11T03:06:01.024Z,100909.41
2018-06-11T03:06:22.778Z,100910.84
2018-06-11T03:06:44.536Z,100909.02
2018-06-11T03:07:06.300Z,100909.53
2018-06-11T03:07:28.080Z,100904.04
2018-06-11T03:07:49.845Z,100913.86
2018-06-11T03:08:11.601Z,100899.70
2018-06-11T03:08:33.367Z,100907.46
2018-06-11T03:08:55.151Z,100905.36
2018-06-11T03:09:16.918Z,100904.55
2018-06-11T03:09:38.677Z,100906.27
2018-06-11T03:10:00.451Z,100907.46
2018-06-11T03:10:22.201Z,100907.58
2018-06-11T03:10:43.959Z,100909.41
2018-06-11T03:11:05.708Z,100908.50
2018-06-11T03:11:27.463Z,100908.61
2018-06-11T03:11:49.239Z,100907.30
2018-06-11T03:12:11.000Z,100903.25
2018-06-11T03:12:32.738Z,100902.33
2018-06-11T03:12:54.535Z,100906.67
2018-06-11T03:13:16.294Z,100905.75
2018-06-11T03:13:38.050Z,100906.15
2018-06-11T03:13:59.817Z,100905.75
2018-06-11T03:14:21.570Z,100905.20
2018-06-11T03:14:43.328Z,100908.22
2018-06-11T03:15:05.081Z,100907.06
2018-06-11T03:15:26.841Z,100907.31
2018-06-11T03:15:48.607Z,100910.09
2018-06-11T03:16:10.371Z,100905.36
2018-06-11T03:16:32.131Z,100906.27
2018-06-11T03:16:53.888Z,100911.64
2018-06-11T03:17:15.632Z,100907.70
2018-06-11T03:17:37.387Z,100908.37
2018-06-11T03:17:59.139Z,100914.03
2018-06-11T03:18:20.895Z,100910.33
2018-06-11T03:18:42.654Z,100913.88
2018-06-11T03:19:04.434Z,100910.73
2018-06-11T03:19:26.189Z,100910.84
2018-06-11T03:19:47.940Z,100911.25
2018-06-11T03:20:09.711Z,100914.27
2018-06-11T03:20:31.465Z,100910.33
2018-06-11T03:20:53.216Z,100914.79
2018-06-11T03:21:14.975Z,100913.08
2018-06-11T03:21:36.726Z,100911.53
2018-06-11T03:21:58.484Z,100914.95
2018-06-11T03:22:20.234Z,100918.89
2018-06-11T03:22:41.998Z,100912.72
2018-06-11T03:23:03.759Z,100918.25
2018-06-11T03:23:25.516Z,100914.31
2018-06-11T03:23:47.296Z,100916.55
2018-06-11T03:24:09.067Z,100909.58
2018-06-11T03:24:30.807Z,100915.75
2018-06-11T03:24:52.573Z,100913.00
2018-06-11T03:25:14.335Z,100914.83
2018-06-11T03:25:36.095Z,100911.41
2018-06-11T03:25:57.856Z,100909.06
2018-06-11T03:26:19.610Z,100915.23
2018-06-11T03:26:41.363Z,100913.12
2018-06-11T03:27:03.118Z,100910.38
2018-06-11T03:27:24.888Z,100916.66
2018-06-11T03:27:46.657Z,100914.03
2018-06-11T03:28:08.416Z,100913.28
2018-06-11T03:28:30.182Z,100913.68
2018-06-11T03:28:51.936Z,100910.66
2018-06-11T03:29:13.700Z,100917.73
2018-06-11T03:29:35.462Z,100908.42
2018-06-11T03:29:57.221Z,100911.57
2018-06-11T03:30:18.980Z,100911.84
2018-06-11T03:30:40.738Z,100908.55
2018-06-11T03:31:02.504Z,100915.27
2018-06-11T03:31:24.263Z,100910.94
2018-06-11T03:31:46.024Z,100909.62
2018-06-11T03:32:07.792Z,100915.91
2018-06-11T03:32:29.561Z,100906.59
2018-06-11T03:32:51.313Z,100911.05
2018-06-11T03:33:13.077Z,100906.88
2018-06-11T03:33:34.839Z,100912.77
2018-06-11T03:33:56.582Z,100906.88
2018-06-11T03:34:18.363Z,100908.70
2018-06-11T03:34:40.121Z,100911.33
2018-06-11T03:35:01.907Z,100909.50
2018-06-11T03:35:23.623Z,100915.27
2018-06-11T03:35:45.435Z,100916.98
2018-06-11T03:36:07.173Z,100914.47
2018-06-11T03:36:28.922Z,100912.13
2018-06-11T03:36:50.667Z,100915.27
2018-06-11T03:37:12.422Z,100915.91
2018-06-11T03:37:34.165Z,100913.05
2018-06-11T03:37:55.957Z,100915.27
2018-06-11T03:38:17.708Z,100916.83
2018-06-11T03:38:39.459Z,100912.64
2018-06-11T03:39:01.213Z,100912.48
2018-06-11T03:39:22.982Z,100915.67
2018-06-11T03:39:44.740Z,100911.73
2018-06-11T03:40:06.494Z,100917.50
2018-06-11T03:40:28.248Z,100918.81
2018-06-11T03:40:50.018Z,100908.19
2018-06-11T03:41:11.788Z,100914.75
2018-06-11T03:41:33.548Z,100914.59
2018-06-11T03:41:55.298Z,100914.48
2018-06-11T03:42:17.066Z,100917.74
2018-06-11T03:42:38.824Z,100923.55
2018-06-11T03:43:00.583Z,100920.12
2018-06-11T03:43:22.338Z,100920.00
2018-06-11T03:43:44.079Z,100919.20
2018-06-11T03:44:05.830Z,100916.31
2018-06-11T03:44:27.611Z,100920.92
2018-06-11T03:44:49.372Z,100920.37
2018-06-11T03:45:11.139Z,100917.74
2018-06-11T03:45:32.908Z,100925.50
2018-06-11T03:45:54.677Z,100920.92
2018-06-11T03:46:16.446Z,100925.50
2018-06-11T03:46:38.216Z,100921.56
2018-06-11T03:46:59.970Z,100922.88
2018-06-11T03:47:21.719Z,100926.81
2018-06-11T03:47:43.468Z,100924.70
2018-06-11T03:48:05.226Z,100921.95
2018-06-11T03:48:26.985Z,100924.59
2018-06-11T03:48:48.755Z,100919.33
2018-06-11T03:49:10.535Z,100922.48
2018-06-11T03:49:32.297Z,100923.55
2018-06-11T03:49:54.059Z,100920.64
2018-06-11T03:50:15.811Z,100920.52
2018-06-11T03:50:37.589Z,100914.87
2018-06-11T03:50:59.371Z,100918.30
2018-06-11T03:51:21.122Z,100918.81
2018-06-11T03:51:42.908Z,100910.94
2018-06-11T03:52:04.675Z,100916.59
2018-06-11T03:52:26.435Z,100911.73
2018-06-11T03:52:48.205Z,100907.40
2018-06-11T03:53:09.972Z,100912.41
2018-06-11T03:53:31.727Z,100913.09
2018-06-11T03:53:53.478Z,100908.88
2018-06-11T03:54:15.242Z,100917.27
2018-06-11T03:54:37.006Z,100915.44
2018-06-11T03:54:58.760Z,100913.33
2018-06-11T03:55:20.528Z,100914.52
2018-06-11T03:55:42.298Z,100915.55
2018-06-11T03:56:04.059Z,100911.22
2018-06-11T03:56:25.824Z,100911.22
2018-06-11T03:56:47.582Z,100916.47
2018-06-11T03:57:09.342Z,100912.53
2018-06-11T03:57:31.097Z,100910.58
2018-06-11T03:57:52.842Z,100915.55
2018-06-11T03:58:14.615Z,100911.09
2018-06-11T03:58:36.372Z,100914.23
2018-06-11T03:58:58.141Z,100915.55
2018-06-11T03:59:19.896Z,100910.70
2018-06-11T03:59:41.663Z,100912.81
2018-06-11T04:00:03.429Z,100918.97
2018-06-11T04:00:25.182Z,100914.92
2018-06-11T04:00:46.985Z,100916.34
2018-06-11T04:01:08.716Z,100913.48
2018-06-11T04:01:30.467Z,100913.48
2018-06-11T04:01:52.227Z,100920.84
2018-06-11T04:02:13.983Z,100920.84
2018-06-11T04:02:35.791Z,100914.16
2018-06-11T04:02:57.542Z,100922.39
2018-06-11T04:03:19.296Z,100915.83
2018-06-11T04:03:41.059Z,100914.16
2018-06-11T04:04:02.807Z,100915.31
2018-06-11T04:04:24.587Z,100913.61
2018-06-11T04:04:46.334Z,100911.90
2018-06-11T04:05:08.095Z,100924.27
2018-06-11T04:05:29.863Z,100911.37
2018-06-11T04:05:51.624Z,100912.05
2018-06-11T04:06:13.378Z,100913.36
2018-06-11T04:06:35.141Z,100913.77
2018-06-11T04:07:06.504Z,100912.45
2018-06-11T04:07:28.264Z,100911.78
2018-06-11T04:07:50.016Z,100910.73
2018-06-11T04:08:11.763Z,100906.02
2018-06-11T04:08:33.530Z,100914.80
2018-06-11T04:08:55.283Z,100914.41